Relevés horaires Schaffen (Belgique)


Relevés horaires à Schaffen - Jeudi 02 Juill. 2020
Heure UTC1 Température [°C] Vent [km/h] Hum. [%] Pres.4 [hPa] Visi. [Km] Nébu. [octa] Préc.5 [mm] Cond.
2m. Res. Ros. Dir.2 Vit. Moy. Raf.3
23:00 14.1 14.1 9.9 NNO 1.9 -- 5.6 76 1015.7(1.2/3h) 20 -- -- --
22:00 14.9 14.9 9.6 NNO 1.9 -- 5.6 71 1015.5(1.7/3h) 20 -- -- --
21:00 15.8 15.8 9.1 OSO 3.7 -- 16.7 64 1015.1(2.0/3h) 20 -- -- --
20:00 17.5 17.5 8.9 O 7.4 -- 13.0 57 1014.3(1.7/3h) 20 -- -- --
19:00 16.8 16.8 12.4 N 5.6 -- 16.7 75 1013.7(1.3/3h) 20 -- -- --
18:00 19.3 19.3 9.1 O 9.3 -- 20.4 52 1013(0.8/3h) 20 -- trace/12h
--
17:00 20.1 20.1 10.3 O 7.4 -- 16.7 53 1012.6(0.5/3h) 20 -- -- --
16:00 19.9 19.9 9.7 O 7.4 -- 16.7 52 1012.2(0.5/3h) 20 -- -- --
15:00 19.8 19.8 10.4 O 7.4 -- 20.4 55 1012.1(0.6/3h) 20 -- -- --
14:00 19.9 19.9 11.1 O 9.3 -- 16.7 57 1012(0.5/3h) 20 -- -- --
13:00 19.3 19.3 12.5 ONO 9.3 -- 20.4 65 1011.7(0.5/3h) 20 -- -- --
12:00 21.0 21.0 13.3 OSO 5.6 -- 14.8 61 1011.3(0.4/3h) 20 -- trace/6h
NA
11:00 19.4 19.4 12.4 OSO 7.4 -- 14.8 64 1011.5(0.7/3h) 20 -- -- --
10:00 20.0 20.0 12.9 OSO 3.7 -- 13.0 64 1011.1(0.6/3h) 20 -- -- --
09:00 18.3 18.3 12.7 OSO 7.4 -- 13.0 70 1011(0.5/3h) 20 6/8 -- --
08:00 17.7 17.7 13.3 SO 5.6 -- 13.0 75 1010.7(0.3/3h) 20 6/8 -- --
07:00 17.0 17.0 13.7 SSO 5.6 -- 9.3 81 1010.6(0.6/3h) 19 -- -- NA
06:00 15.8 15.8 12.6 SO 3.7 -- 11.1 81 1010.5(0.6/3h) 19 -- -- --
05:00 15.6 15.6 12.2 SO 3.7 -- 7.4 80 1010.5(0.5/3h) 20 -- -- --
04:00 14.8 14.8 11.8 NNO 3.7 -- 7.4 82 1010(0.0/3h) 20 -- -- --
03:00 14.6 14.6 11.7 SO 3.7 -- 11.1 83 1009.8(0.0/3h) 20 -- -- --
02:00 14.5 14.5 11.6 SO 3.7 -- 11.1 83 1010(0.1/3h) 20 -- -- --
01:00 14.1 14.1 12.0 S 5.6 -- 11.1 87 1010.1(0.3/3h) 20 -- -- --
00:00 14.6 14.6 11.6 NNO 1.9 -- 13.0 82 1010(0.7/3h) 20 -- -- --

1 Coordinated Universal Time. Actuellement il est 07:00 locale et 05:00 UTC.

2 Le vent souffle depuis la direction indiquée vers la direction oposée.

3 Les rafales max. sont disponible 40 min après l'heure du relevé.

4 Pour les stations d'altitude (plus de 600m) le géopotentiel du niveau le plus proche de la pression obligatoire est indiqué.

5 Les stations disposant d'un diffuseur peuvent indiquer "trace". Cela signifie que des précipitations ont touchés le sol mais que la quantité est inférieure à 0.1 mm.

Récapitulatif de la journée
Température [°C] Vent [km/h] Ensoleillement4 [h] Precipitations totale5 [mm] Pression [Hpa]
Min1 Max.2 Moy.3 Max. Min Max.
13.7 21.4 0 20.4 0 h 0 min 0 1009.8 1015.7

1 Température minimale relevée entre 18:00 UTC la veille et 18:00 UTC le jour donné.

2 Température maximale relevée entre 06:00 UTC le jour donné et 06:00 UTC le lendemain.

3 Vent moyen de la journée basé sur les relevés horaires.

4 Ensoleillement en heures relevé entre 06:00 UTC la veille et 06:00 UTC le jour donné.

5 Précipitations totales tombées entre 06:00 UTC la jour donné et 06:00 UTC le lendemain.

Graphiques horaires